sensor_id;sensor_type;location;lat;lon;timestamp;temperature;humidity
68354;DHT22;55274;43.060;25.618;2023-03-01T00:01:05;7.00;99.90
68354;DHT22;55274;43.060;25.618;2023-03-01T00:03:32;7.00;99.90
68354;DHT22;55274;43.060;25.618;2023-03-01T00:05:58;7.00;99.90
68354;DHT22;55274;43.060;25.618;2023-03-01T00:08:25;6.90;99.90
68354;DHT22;55274;43.060;25.618;2023-03-01T00:11:21;6.90;99.90
68354;DHT22;55274;43.060;25.618;2023-03-01T00:13:47;6.90;99.90
68354;DHT22;55274;43.060;25.618;2023-03-01T00:16:16;6.90;99.90
68354;DHT22;55274;43.060;25.618;2023-03-01T00:18:42;6.90;99.90
68354;DHT22;55274;43.060;25.618;2023-03-01T00:21:08;6.90;99.90
68354;DHT22;55274;43.060;25.618;2023-03-01T00:23:34;6.90;99.90
68354;DHT22;55274;43.060;25.618;2023-03-01T00:26:00;6.90;99.90
68354;DHT22;55274;43.060;25.618;2023-03-01T00:28:26;7.00;99.90
68354;DHT22;55274;43.060;25.618;2023-03-01T00:30:52;7.00;99.90
68354;DHT22;55274;43.060;25.618;2023-03-01T00:33:18;6.90;99.90
68354;DHT22;55274;43.060;25.618;2023-03-01T00:35:44;6.90;99.90
68354;DHT22;55274;43.060;25.618;2023-03-01T00:38:10;6.90;99.90
68354;DHT22;55274;43.060;25.618;2023-03-01T00:40:36;7.00;99.90
68354;DHT22;55274;43.060;25.618;2023-03-01T00:43:03;7.00;99.90
68354;DHT22;55274;43.060;25.618;2023-03-01T00:45:29;7.00;99.90
68354;DHT22;55274;43.060;25.618;2023-03-01T00:47:56;7.00;99.90
68354;DHT22;55274;43.060;25.618;2023-03-01T00:50:23;7.00;99.90
68354;DHT22;55274;43.060;25.618;2023-03-01T00:52:54;6.90;99.90
68354;DHT22;55274;43.060;25.618;2023-03-01T00:55:20;7.00;99.90
68354;DHT22;55274;43.060;25.618;2023-03-01T00:57:45;6.90;99.90
68354;DHT22;55274;43.060;25.618;2023-03-01T01:00:11;7.00;99.90
68354;DHT22;55274;43.060;25.618;2023-03-01T01:02:37;7.00;99.90
68354;DHT22;55274;43.060;25.618;2023-03-01T01:05:04;7.00;99.90
68354;DHT22;55274;43.060;25.618;2023-03-01T01:07:30;7.00;99.90
68354;DHT22;55274;43.060;25.618;2023-03-01T01:09:55;6.90;99.90
68354;DHT22;55274;43.060;25.618;2023-03-01T01:12:22;6.90;99.90
68354;DHT22;55274;43.060;25.618;2023-03-01T01:14:47;6.90;99.90
68354;DHT22;55274;43.060;25.618;2023-03-01T01:17:13;6.90;99.90
68354;DHT22;55274;43.060;25.618;2023-03-01T01:19:39;6.90;99.90
68354;DHT22;55274;43.060;25.618;2023-03-01T01:22:05;6.90;99.90
68354;DHT22;55274;43.060;25.618;2023-03-01T01:24:31;6.80;99.90
68354;DHT22;55274;43.060;25.618;2023-03-01T01:26:57;6.80;99.90
68354;DHT22;55274;43.060;25.618;2023-03-01T01:29:23;6.80;99.90
68354;DHT22;55274;43.060;25.618;2023-03-01T01:31:48;6.80;99.90
68354;DHT22;55274;43.060;25.618;2023-03-01T01:34:16;6.80;99.90
68354;DHT22;55274;43.060;25.618;2023-03-01T01:36:43;6.80;99.90
68354;DHT22;55274;43.060;25.618;2023-03-01T01:39:09;6.80;99.90
68354;DHT22;55274;43.060;25.618;2023-03-01T01:41:39;6.80;99.90
68354;DHT22;55274;43.060;25.618;2023-03-01T01:44:26;6.80;99.90
68354;DHT22;55274;43.060;25.618;2023-03-01T01:46:59;6.80;99.90
68354;DHT22;55274;43.060;25.618;2023-03-01T01:57:16;6.80;99.90
68354;DHT22;55274;43.060;25.618;2023-03-01T01:59:46;6.80;99.90
68354;DHT22;55274;43.060;25.618;2023-03-01T02:02:14;6.80;99.90
68354;DHT22;55274;43.060;25.618;2023-03-01T02:04:40;6.80;99.90
68354;DHT22;55274;43.060;25.618;2023-03-01T02:07:18;6.80;99.90
68354;DHT22;55274;43.060;25.618;2023-03-01T02:09:47;6.70;99.90
68354;DHT22;55274;43.060;25.618;2023-03-01T02:12:19;6.70;99.90
68354;DHT22;55274;43.060;25.618;2023-03-01T02:14:46;6.60;99.90
68354;DHT22;55274;43.060;25.618;2023-03-01T02:17:13;6.60;99.90
68354;DHT22;55274;43.060;25.618;2023-03-01T02:19:56;6.60;99.90
68354;DHT22;55274;43.060;25.618;2023-03-01T02:22:27;6.50;99.90
68354;DHT22;55274;43.060;25.618;2023-03-01T02:27:35;6.40;99.90
68354;DHT22;55274;43.060;25.618;2023-03-01T02:30:02;6.40;99.90
68354;DHT22;55274;43.060;25.618;2023-03-01T02:32:28;6.40;99.90
68354;DHT22;55274;43.060;25.618;2023-03-01T02:34:55;6.40;99.90
68354;DHT22;55274;43.060;25.618;2023-03-01T02:37:22;6.50;99.90
68354;DHT22;55274;43.060;25.618;2023-03-01T02:39:56;6.50;99.90
68354;DHT22;55274;43.060;25.618;2023-03-01T02:42:28;6.50;99.90
68354;DHT22;55274;43.060;25.618;2023-03-01T02:44:55;6.50;99.90
68354;DHT22;55274;43.060;25.618;2023-03-01T02:47:21;6.40;99.90
68354;DHT22;55274;43.060;25.618;2023-03-01T02:49:47;6.50;99.90
68354;DHT22;55274;43.060;25.618;2023-03-01T02:55:09;6.50;99.90
68354;DHT22;55274;43.060;25.618;2023-03-01T02:57:38;6.50;99.90
68354;DHT22;55274;43.060;25.618;2023-03-01T03:00:08;6.50;99.90
68354;DHT22;55274;43.060;25.618;2023-03-01T03:02:35;6.50;99.90
68354;DHT22;55274;43.060;25.618;2023-03-01T03:05:09;6.50;99.90
68354;DHT22;55274;43.060;25.618;2023-03-01T03:07:36;6.40;99.90
68354;DHT22;55274;43.060;25.618;2023-03-01T03:10:04;6.40;99.90
68354;DHT22;55274;43.060;25.618;2023-03-01T03:12:30;6.50;99.90
68354;DHT22;55274;43.060;25.618;2023-03-01T03:14:56;6.50;99.90
68354;DHT22;55274;43.060;25.618;2023-03-01T03:17:21;6.50;99.90
68354;DHT22;55274;43.060;25.618;2023-03-01T03:19:47;6.50;99.90
68354;DHT22;55274;43.060;25.618;2023-03-01T03:22:13;6.50;99.90
68354;DHT22;55274;43.060;25.618;2023-03-01T03:24:39;6.50;99.90
68354;DHT22;55274;43.060;25.618;2023-03-01T03:27:05;6.60;99.90
68354;DHT22;55274;43.060;25.618;2023-03-01T03:29:32;6.50;99.90
68354;DHT22;55274;43.060;25.618;2023-03-01T03:31:58;6.60;99.90
68354;DHT22;55274;43.060;25.618;2023-03-01T03:34:23;6.50;99.90
68354;DHT22;55274;43.060;25.618;2023-03-01T03:36:56;6.50;99.90
68354;DHT22;55274;43.060;25.618;2023-03-01T03:39:25;6.50;99.90
68354;DHT22;55274;43.060;25.618;2023-03-01T03:41:52;6.50;99.90
68354;DHT22;55274;43.060;25.618;2023-03-01T03:44:20;6.50;99.90
68354;DHT22;55274;43.060;25.618;2023-03-01T03:46:46;6.50;99.90
68354;DHT22;55274;43.060;25.618;2023-03-01T03:49:11;6.50;99.90
68354;DHT22;55274;43.060;25.618;2023-03-01T03:51:37;6.50;99.90
68354;DHT22;55274;43.060;25.618;2023-03-01T03:54:03;6.50;99.90
68354;DHT22;55274;43.060;25.618;2023-03-01T03:56:29;6.50;99.90
68354;DHT22;55274;43.060;25.618;2023-03-01T03:58:55;6.60;99.90
68354;DHT22;55274;43.060;25.618;2023-03-01T04:04:23;6.60;99.90
68354;DHT22;55274;43.060;25.618;2023-03-01T04:06:49;6.60;99.90
68354;DHT22;55274;43.060;25.618;2023-03-01T04:09:15;6.60;99.90
68354;DHT22;55274;43.060;25.618;2023-03-01T04:11:40;6.60;99.90
68354;DHT22;55274;43.060;25.618;2023-03-01T04:14:06;6.60;99.90
68354;DHT22;55274;43.060;25.618;2023-03-01T04:16:32;6.60;99.90
68354;DHT22;55274;43.060;25.618;2023-03-01T04:18:58;6.60;99.90
68354;DHT22;55274;43.060;25.618;2023-03-01T04:21:25;6.60;99.90
68354;DHT22;55274;43.060;25.618;2023-03-01T04:23:51;6.60;99.90
68354;DHT22;55274;43.060;25.618;2023-03-01T04:26:19;6.60;99.90
68354;DHT22;55274;43.060;25.618;2023-03-01T04:28:45;6.60;99.90
68354;DHT22;55274;43.060;25.618;2023-03-01T04:31:16;6.60;99.90
68354;DHT22;55274;43.060;25.618;2023-03-01T04:33:49;6.60;99.90
68354;DHT22;55274;43.060;25.618;2023-03-01T04:36:17;6.60;99.90
68354;DHT22;55274;43.060;25.618;2023-03-01T04:38:44;6.60;99.90
68354;DHT22;55274;43.060;25.618;2023-03-01T04:41:15;6.50;99.90
68354;DHT22;55274;43.060;25.618;2023-03-01T04:43:41;6.60;99.90
68354;DHT22;55274;43.060;25.618;2023-03-01T04:46:09;6.60;99.90
68354;DHT22;55274;43.060;25.618;2023-03-01T04:48:37;6.60;99.90
68354;DHT22;55274;43.060;25.618;2023-03-01T04:51:03;6.60;99.90
68354;DHT22;55274;43.060;25.618;2023-03-01T04:53:30;6.60;99.90
68354;DHT22;55274;43.060;25.618;2023-03-01T04:55:56;6.60;99.90
68354;DHT22;55274;43.060;25.618;2023-03-01T04:58:26;6.60;99.90
68354;DHT22;55274;43.060;25.618;2023-03-01T05:00:52;6.60;99.90
68354;DHT22;55274;43.060;25.618;2023-03-01T05:03:19;6.70;99.90
68354;DHT22;55274;43.060;25.618;2023-03-01T05:05:49;6.70;99.90
68354;DHT22;55274;43.060;25.618;2023-03-01T05:08:15;6.70;99.90
68354;DHT22;55274;43.060;25.618;2023-03-01T05:10:46;6.70;99.90
68354;DHT22;55274;43.060;25.618;2023-03-01T05:13:12;6.70;99.90
68354;DHT22;55274;43.060;25.618;2023-03-01T05:15:39;6.70;99.90
68354;DHT22;55274;43.060;25.618;2023-03-01T05:18:05;6.60;99.90
68354;DHT22;55274;43.060;25.618;2023-03-01T05:20:37;6.60;99.90
68354;DHT22;55274;43.060;25.618;2023-03-01T05:23:04;6.60;99.90
68354;DHT22;55274;43.060;25.618;2023-03-01T05:25:33;6.60;99.90
68354;DHT22;55274;43.060;25.618;2023-03-01T05:28:01;6.60;99.90
68354;DHT22;55274;43.060;25.618;2023-03-01T05:30:33;6.60;99.90
68354;DHT22;55274;43.060;25.618;2023-03-01T05:32:59;6.50;99.90
68354;DHT22;55274;43.060;25.618;2023-03-01T05:35:25;6.60;99.90
68354;DHT22;55274;43.060;25.618;2023-03-01T05:37:52;6.60;99.90
68354;DHT22;55274;43.060;25.618;2023-03-01T05:40:20;6.60;99.90
68354;DHT22;55274;43.060;25.618;2023-03-01T05:42:51;6.50;99.90
68354;DHT22;55274;43.060;25.618;2023-03-01T05:45:18;6.50;99.90
68354;DHT22;55274;43.060;25.618;2023-03-01T05:47:45;6.50;99.90
68354;DHT22;55274;43.060;25.618;2023-03-01T05:52:37;6.60;99.90
68354;DHT22;55274;43.060;25.618;2023-03-01T05:55:03;6.60;99.90
68354;DHT22;55274;43.060;25.618;2023-03-01T05:57:29;6.60;99.90
68354;DHT22;55274;43.060;25.618;2023-03-01T05:59:55;6.60;99.90
68354;DHT22;55274;43.060;25.618;2023-03-01T06:02:21;6.60;99.90
68354;DHT22;55274;43.060;25.618;2023-03-01T06:04:46;6.50;99.90
68354;DHT22;55274;43.060;25.618;2023-03-01T06:07:12;6.60;99.90
68354;DHT22;55274;43.060;25.618;2023-03-01T06:09:38;6.60;99.90
68354;DHT22;55274;43.060;25.618;2023-03-01T06:12:04;6.50;99.90
68354;DHT22;55274;43.060;25.618;2023-03-01T06:14:30;6.50;99.90
68354;DHT22;55274;43.060;25.618;2023-03-01T06:16:56;6.60;99.90
68354;DHT22;55274;43.060;25.618;2023-03-01T06:19:22;6.60;99.90
68354;DHT22;55274;43.060;25.618;2023-03-01T06:21:48;6.70;99.90
68354;DHT22;55274;43.060;25.618;2023-03-01T06:24:14;6.70;99.90
68354;DHT22;55274;43.060;25.618;2023-03-01T06:26:39;6.70;99.90
68354;DHT22;55274;43.060;25.618;2023-03-01T06:29:05;6.70;99.90
68354;DHT22;55274;43.060;25.618;2023-03-01T06:31:31;6.70;99.90
68354;DHT22;55274;43.060;25.618;2023-03-01T06:33:57;6.70;99.90
68354;DHT22;55274;43.060;25.618;2023-03-01T06:36:22;6.70;99.90
68354;DHT22;55274;43.060;25.618;2023-03-01T06:38:48;6.80;99.90
68354;DHT22;55274;43.060;25.618;2023-03-01T06:41:14;6.80;99.90
68354;DHT22;55274;43.060;25.618;2023-03-01T06:43:40;6.80;99.90
68354;DHT22;55274;43.060;25.618;2023-03-01T06:46:06;6.80;99.90
68354;DHT22;55274;43.060;25.618;2023-03-01T06:48:35;6.80;99.90
68354;DHT22;55274;43.060;25.618;2023-03-01T06:51:01;6.90;99.90
68354;DHT22;55274;43.060;25.618;2023-03-01T06:53:28;6.80;99.90
68354;DHT22;55274;43.060;25.618;2023-03-01T06:55:57;6.90;99.90
68354;DHT22;55274;43.060;25.618;2023-03-01T06:58:24;6.80;99.90
68354;DHT22;55274;43.060;25.618;2023-03-01T07:00:50;6.90;99.90
68354;DHT22;55274;43.060;25.618;2023-03-01T07:03:16;6.90;99.90
68354;DHT22;55274;43.060;25.618;2023-03-01T07:05:41;6.90;99.90
68354;DHT22;55274;43.060;25.618;2023-03-01T07:08:07;6.90;99.90
68354;DHT22;55274;43.060;25.618;2023-03-01T07:10:33;6.90;99.90
68354;DHT22;55274;43.060;25.618;2023-03-01T07:12:59;6.90;99.90
68354;DHT22;55274;43.060;25.618;2023-03-01T07:15:26;6.90;99.90
68354;DHT22;55274;43.060;25.618;2023-03-01T07:17:52;6.90;99.90
68354;DHT22;55274;43.060;25.618;2023-03-01T07:20:19;6.90;99.90
68354;DHT22;55274;43.060;25.618;2023-03-01T07:22:50;6.90;99.90
68354;DHT22;55274;43.060;25.618;2023-03-01T07:25:16;7.00;99.90
68354;DHT22;55274;43.060;25.618;2023-03-01T07:27:42;7.00;99.90
68354;DHT22;55274;43.060;25.618;2023-03-01T07:30:08;7.10;99.90
68354;DHT22;55274;43.060;25.618;2023-03-01T07:32:34;7.10;99.90
68354;DHT22;55274;43.060;25.618;2023-03-01T07:35:00;7.10;99.90
68354;DHT22;55274;43.060;25.618;2023-03-01T07:37:26;7.10;99.90
68354;DHT22;55274;43.060;25.618;2023-03-01T07:39:51;7.10;99.90
68354;DHT22;55274;43.060;25.618;2023-03-01T07:42:17;7.10;99.90
68354;DHT22;55274;43.060;25.618;2023-03-01T07:44:43;7.20;99.90
68354;DHT22;55274;43.060;25.618;2023-03-01T07:47:09;7.20;99.90
68354;DHT22;55274;43.060;25.618;2023-03-01T07:49:35;7.20;99.90
68354;DHT22;55274;43.060;25.618;2023-03-01T07:52:00;7.20;99.90
68354;DHT22;55274;43.060;25.618;2023-03-01T07:54:26;7.20;99.90
68354;DHT22;55274;43.060;25.618;2023-03-01T07:56:52;7.20;99.90
68354;DHT22;55274;43.060;25.618;2023-03-01T07:59:20;7.20;99.90
68354;DHT22;55274;43.060;25.618;2023-03-01T08:01:46;7.30;99.90
68354;DHT22;55274;43.060;25.618;2023-03-01T08:04:11;7.30;99.90
68354;DHT22;55274;43.060;25.618;2023-03-01T08:06:37;7.30;99.90
68354;DHT22;55274;43.060;25.618;2023-03-01T08:09:03;7.40;99.90
68354;DHT22;55274;43.060;25.618;2023-03-01T08:11:29;7.40;99.90
68354;DHT22;55274;43.060;25.618;2023-03-01T08:13:55;7.40;99.90
68354;DHT22;55274;43.060;25.618;2023-03-01T08:16:21;7.40;99.90
68354;DHT22;55274;43.060;25.618;2023-03-01T08:18:47;7.40;99.90
68354;DHT22;55274;43.060;25.618;2023-03-01T08:21:15;7.40;99.90
68354;DHT22;55274;43.060;25.618;2023-03-01T08:23:41;7.40;99.90
68354;DHT22;55274;43.060;25.618;2023-03-01T08:26:09;7.40;99.90
68354;DHT22;55274;43.060;25.618;2023-03-01T08:28:35;7.40;99.90
68354;DHT22;55274;43.060;25.618;2023-03-01T08:31:02;7.40;99.90
68354;DHT22;55274;43.060;25.618;2023-03-01T08:33:28;7.40;99.90
68354;DHT22;55274;43.060;25.618;2023-03-01T08:36:03;7.10;99.90
68354;DHT22;55274;43.060;25.618;2023-03-01T08:38:29;7.50;99.90
68354;DHT22;55274;43.060;25.618;2023-03-01T08:41:04;7.40;99.90
68354;DHT22;55274;43.060;25.618;2023-03-01T08:43:30;7.40;99.90
68354;DHT22;55274;43.060;25.618;2023-03-01T08:45:56;7.40;99.90
68354;DHT22;55274;43.060;25.618;2023-03-01T08:48:22;7.40;99.90
68354;DHT22;55274;43.060;25.618;2023-03-01T08:50:47;7.40;99.90
68354;DHT22;55274;43.060;25.618;2023-03-01T08:53:13;7.50;99.90
68354;DHT22;55274;43.060;25.618;2023-03-01T08:55:39;7.50;99.90
68354;DHT22;55274;43.060;25.618;2023-03-01T08:58:05;7.50;99.90
68354;DHT22;55274;43.060;25.618;2023-03-01T09:00:30;7.50;99.90
68354;DHT22;55274;43.060;25.618;2023-03-01T09:03:00;7.50;99.90
68354;DHT22;55274;43.060;25.618;2023-03-01T09:05:26;7.50;99.90
68354;DHT22;55274;43.060;25.618;2023-03-01T09:07:51;7.50;99.90
68354;DHT22;55274;43.060;25.618;2023-03-01T09:10:17;7.50;99.90
68354;DHT22;55274;43.060;25.618;2023-03-01T09:12:43;7.50;99.90
68354;DHT22;55274;43.060;25.618;2023-03-01T09:15:10;7.50;99.90
68354;DHT22;55274;43.060;25.618;2023-03-01T09:17:35;7.40;99.90
68354;DHT22;55274;43.060;25.618;2023-03-01T09:20:01;7.40;99.90
68354;DHT22;55274;43.060;25.618;2023-03-01T09:22:28;7.50;99.90
68354;DHT22;55274;43.060;25.618;2023-03-01T09:24:54;7.50;99.90
68354;DHT22;55274;43.060;25.618;2023-03-01T09:27:19;7.50;99.90
68354;DHT22;55274;43.060;25.618;2023-03-01T09:29:45;7.50;99.90
68354;DHT22;55274;43.060;25.618;2023-03-01T09:32:11;7.50;99.90
68354;DHT22;55274;43.060;25.618;2023-03-01T09:34:37;7.50;99.90
68354;DHT22;55274;43.060;25.618;2023-03-01T09:37:22;7.60;99.90
68354;DHT22;55274;43.060;25.618;2023-03-01T09:39:48;7.60;99.90
68354;DHT22;55274;43.060;25.618;2023-03-01T09:42:14;7.60;99.90
68354;DHT22;55274;43.060;25.618;2023-03-01T09:47:21;7.60;99.90
68354;DHT22;55274;43.060;25.618;2023-03-01T09:50:14;7.70;99.90
68354;DHT22;55274;43.060;25.618;2023-03-01T09:55:43;7.70;99.90
68354;DHT22;55274;43.060;25.618;2023-03-01T09:58:38;7.70;99.90
68354;DHT22;55274;43.060;25.618;2023-03-01T10:01:16;7.70;99.90
68354;DHT22;55274;43.060;25.618;2023-03-01T10:04:13;7.80;99.90
68354;DHT22;55274;43.060;25.618;2023-03-01T10:06:50;7.80;99.90
68354;DHT22;55274;43.060;25.618;2023-03-01T10:09:17;7.80;99.90
68354;DHT22;55274;43.060;25.618;2023-03-01T10:11:49;7.90;99.90
68354;DHT22;55274;43.060;25.618;2023-03-01T10:14:22;8.00;99.90
68354;DHT22;55274;43.060;25.618;2023-03-01T10:16:58;8.00;99.90
68354;DHT22;55274;43.060;25.618;2023-03-01T10:19:39;8.10;99.90
68354;DHT22;55274;43.060;25.618;2023-03-01T10:22:17;8.20;99.90
68354;DHT22;55274;43.060;25.618;2023-03-01T10:24:44;8.10;99.90
68354;DHT22;55274;43.060;25.618;2023-03-01T10:32:19;8.10;99.90
68354;DHT22;55274;43.060;25.618;2023-03-01T10:34:47;8.10;99.90
68354;DHT22;55274;43.060;25.618;2023-03-01T10:37:14;8.00;99.90
68354;DHT22;55274;43.060;25.618;2023-03-01T10:40:07;8.10;99.90
68354;DHT22;55274;43.060;25.618;2023-03-01T10:42:46;8.00;99.90
68354;DHT22;55274;43.060;25.618;2023-03-01T10:47:44;7.90;99.90
68354;DHT22;55274;43.060;25.618;2023-03-01T10:50:21;7.80;99.90
68354;DHT22;55274;43.060;25.618;2023-03-01T10:52:59;7.80;99.90
68354;DHT22;55274;43.060;25.618;2023-03-01T10:55:36;7.80;99.90
68354;DHT22;55274;43.060;25.618;2023-03-01T10:58:20;7.90;99.90
68354;DHT22;55274;43.060;25.618;2023-03-01T11:01:05;7.90;99.90
68354;DHT22;55274;43.060;25.618;2023-03-01T11:03:36;7.90;99.90
68354;DHT22;55274;43.060;25.618;2023-03-01T11:08:45;7.80;99.90
68354;DHT22;55274;43.060;25.618;2023-03-01T11:16:43;7.90;99.90
68354;DHT22;55274;43.060;25.618;2023-03-01T11:21:54;7.90;99.90
68354;DHT22;55274;43.060;25.618;2023-03-01T11:24:45;7.90;99.90
68354;DHT22;55274;43.060;25.618;2023-03-01T11:29:45;7.90;99.90
68354;DHT22;55274;43.060;25.618;2023-03-01T11:32:13;7.90;99.90
68354;DHT22;55274;43.060;25.618;2023-03-01T11:34:53;8.00;99.90
68354;DHT22;55274;43.060;25.618;2023-03-01T11:40:46;8.00;99.90
68354;DHT22;55274;43.060;25.618;2023-03-01T11:43:43;8.00;99.90
68354;DHT22;55274;43.060;25.618;2023-03-01T12:04:49;7.90;99.90
68354;DHT22;55274;43.060;25.618;2023-03-01T12:34:24;7.90;99.90
68354;DHT22;55274;43.060;25.618;2023-03-01T12:39:51;7.90;99.90
68354;DHT22;55274;43.060;25.618;2023-03-01T12:47:55;7.80;99.90
68354;DHT22;55274;43.060;25.618;2023-03-01T12:50:29;7.80;99.90
68354;DHT22;55274;43.060;25.618;2023-03-01T12:53:01;7.90;99.90
68354;DHT22;55274;43.060;25.618;2023-03-01T12:55:37;7.90;99.90
68354;DHT22;55274;43.060;25.618;2023-03-01T13:06:19;7.90;99.90
68354;DHT22;55274;43.060;25.618;2023-03-01T13:09:11;7.90;99.90
68354;DHT22;55274;43.060;25.618;2023-03-01T13:11:42;7.90;99.90
68354;DHT22;55274;43.060;25.618;2023-03-01T13:16:47;7.90;99.90
68354;DHT22;55274;43.060;25.618;2023-03-01T13:19:19;8.00;99.90
68354;DHT22;55274;43.060;25.618;2023-03-01T13:21:47;7.90;99.90
68354;DHT22;55274;43.060;25.618;2023-03-01T13:32:30;8.00;99.90
68354;DHT22;55274;43.060;25.618;2023-03-01T13:35:41;7.90;99.90
68354;DHT22;55274;43.060;25.618;2023-03-01T13:37:46;8.00;99.90
68354;DHT22;55274;43.060;25.618;2023-03-01T13:42:49;8.00;99.90
68354;DHT22;55274;43.060;25.618;2023-03-01T13:48:05;7.90;99.90
68354;DHT22;55274;43.060;25.618;2023-03-01T13:53:41;7.90;99.90
68354;DHT22;55274;43.060;25.618;2023-03-01T13:58:50;7.90;99.90
68354;DHT22;55274;43.060;25.618;2023-03-01T14:01:28;7.90;99.90
68354;DHT22;55274;43.060;25.618;2023-03-01T14:03:55;7.90;99.90
68354;DHT22;55274;43.060;25.618;2023-03-01T14:06:26;7.90;99.90
68354;DHT22;55274;43.060;25.618;2023-03-01T14:09:14;7.90;99.90
68354;DHT22;55274;43.060;25.618;2023-03-01T14:17:35;8.00;99.90
68354;DHT22;55274;43.060;25.618;2023-03-01T14:22:37;7.90;99.90
68354;DHT22;55274;43.060;25.618;2023-03-01T14:25:24;7.90;99.90
68354;DHT22;55274;43.060;25.618;2023-03-01T14:30:41;7.90;99.90
68354;DHT22;55274;43.060;25.618;2023-03-01T14:36:01;7.90;99.90
68354;DHT22;55274;43.060;25.618;2023-03-01T14:38:37;7.90;99.90
68354;DHT22;55274;43.060;25.618;2023-03-01T14:41:08;7.90;99.90
68354;DHT22;55274;43.060;25.618;2023-03-01T14:43:35;7.90;99.90
68354;DHT22;55274;43.060;25.618;2023-03-01T14:46:02;7.90;99.90
68354;DHT22;55274;43.060;25.618;2023-03-01T14:48:28;7.80;99.90
68354;DHT22;55274;43.060;25.618;2023-03-01T14:50:55;7.80;99.90
68354;DHT22;55274;43.060;25.618;2023-03-01T14:53:25;7.80;99.90
68354;DHT22;55274;43.060;25.618;2023-03-01T14:55:55;7.80;99.90
68354;DHT22;55274;43.060;25.618;2023-03-01T14:58:23;7.80;99.90
68354;DHT22;55274;43.060;25.618;2023-03-01T15:00:58;7.80;99.90
68354;DHT22;55274;43.060;25.618;2023-03-01T15:03:38;7.80;99.90
68354;DHT22;55274;43.060;25.618;2023-03-01T15:06:07;7.80;99.90
68354;DHT22;55274;43.060;25.618;2023-03-01T15:08:34;7.80;99.90
68354;DHT22;55274;43.060;25.618;2023-03-01T15:11:04;7.80;99.90
68354;DHT22;55274;43.060;25.618;2023-03-01T15:13:35;7.80;99.90
68354;DHT22;55274;43.060;25.618;2023-03-01T15:16:15;7.80;99.90
68354;DHT22;55274;43.060;25.618;2023-03-01T15:18:48;7.80;99.90
68354;DHT22;55274;43.060;25.618;2023-03-01T15:21:27;7.80;99.90
68354;DHT22;55274;43.060;25.618;2023-03-01T15:23:58;7.80;99.90
68354;DHT22;55274;43.060;25.618;2023-03-01T15:26:35;7.70;99.90
68354;DHT22;55274;43.060;25.618;2023-03-01T15:29:02;7.70;99.90
68354;DHT22;55274;43.060;25.618;2023-03-01T15:31:34;7.70;99.90
68354;DHT22;55274;43.060;25.618;2023-03-01T15:36:48;7.80;99.90
68354;DHT22;55274;43.060;25.618;2023-03-01T15:39:33;7.80;99.90
68354;DHT22;55274;43.060;25.618;2023-03-01T15:45:21;7.70;99.90
68354;DHT22;55274;43.060;25.618;2023-03-01T15:48:01;7.60;99.90
68354;DHT22;55274;43.060;25.618;2023-03-01T15:50:33;7.60;99.90
68354;DHT22;55274;43.060;25.618;2023-03-01T15:53:03;7.50;99.90
68354;DHT22;55274;43.060;25.618;2023-03-01T15:55:32;7.60;99.90
68354;DHT22;55274;43.060;25.618;2023-03-01T15:58:05;7.60;99.90
68354;DHT22;55274;43.060;25.618;2023-03-01T16:00:32;7.60;99.90
68354;DHT22;55274;43.060;25.618;2023-03-01T16:02:58;7.60;99.90
68354;DHT22;55274;43.060;25.618;2023-03-01T16:05:35;7.60;99.90
68354;DHT22;55274;43.060;25.618;2023-03-01T16:08:03;7.60;99.90
68354;DHT22;55274;43.060;25.618;2023-03-01T16:10:30;7.60;99.90
68354;DHT22;55274;43.060;25.618;2023-03-01T16:12:57;7.50;99.90
68354;DHT22;55274;43.060;25.618;2023-03-01T16:15:28;7.50;99.90
68354;DHT22;55274;43.060;25.618;2023-03-01T16:17:54;7.50;99.90
68354;DHT22;55274;43.060;25.618;2023-03-01T16:20:22;7.50;99.90
68354;DHT22;55274;43.060;25.618;2023-03-01T16:22:48;7.60;99.90
68354;DHT22;55274;43.060;25.618;2023-03-01T16:25:16;7.60;99.90
68354;DHT22;55274;43.060;25.618;2023-03-01T16:27:43;7.50;99.90
68354;DHT22;55274;43.060;25.618;2023-03-01T16:30:11;7.50;99.90
68354;DHT22;55274;43.060;25.618;2023-03-01T16:32:38;7.50;99.90
68354;DHT22;55274;43.060;25.618;2023-03-01T16:35:06;7.50;99.90
68354;DHT22;55274;43.060;25.618;2023-03-01T16:37:33;7.50;99.90
68354;DHT22;55274;43.060;25.618;2023-03-01T16:39:59;7.50;99.90
68354;DHT22;55274;43.060;25.618;2023-03-01T16:42:25;7.50;99.90
68354;DHT22;55274;43.060;25.618;2023-03-01T16:44:55;7.50;99.90
68354;DHT22;55274;43.060;25.618;2023-03-01T16:47:21;7.40;99.90
68354;DHT22;55274;43.060;25.618;2023-03-01T16:49:47;7.40;99.90
68354;DHT22;55274;43.060;25.618;2023-03-01T16:52:16;7.50;99.90
68354;DHT22;55274;43.060;25.618;2023-03-01T16:54:42;7.50;99.90
68354;DHT22;55274;43.060;25.618;2023-03-01T16:57:08;7.50;99.90
68354;DHT22;55274;43.060;25.618;2023-03-01T16:59:33;7.50;99.90
68354;DHT22;55274;43.060;25.618;2023-03-01T17:01:59;7.50;99.90
68354;DHT22;55274;43.060;25.618;2023-03-01T17:04:25;7.50;99.90
68354;DHT22;55274;43.060;25.618;2023-03-01T17:06:51;7.50;99.90
68354;DHT22;55274;43.060;25.618;2023-03-01T17:09:17;7.40;99.90
68354;DHT22;55274;43.060;25.618;2023-03-01T17:11:43;7.40;99.90
68354;DHT22;55274;43.060;25.618;2023-03-01T17:14:09;7.40;99.90
68354;DHT22;55274;43.060;25.618;2023-03-01T17:16:35;7.40;99.90
68354;DHT22;55274;43.060;25.618;2023-03-01T17:19:01;7.40;99.90
68354;DHT22;55274;43.060;25.618;2023-03-01T17:21:27;7.40;99.90
68354;DHT22;55274;43.060;25.618;2023-03-01T17:23:55;7.40;99.90
68354;DHT22;55274;43.060;25.618;2023-03-01T17:26:22;7.40;99.90
68354;DHT22;55274;43.060;25.618;2023-03-01T17:28:47;7.40;99.90
68354;DHT22;55274;43.060;25.618;2023-03-01T17:31:18;7.40;99.90
68354;DHT22;55274;43.060;25.618;2023-03-01T17:33:44;7.30;99.90
68354;DHT22;55274;43.060;25.618;2023-03-01T17:36:10;7.30;99.90
68354;DHT22;55274;43.060;25.618;2023-03-01T17:38:36;7.30;99.90
68354;DHT22;55274;43.060;25.618;2023-03-01T17:41:03;7.40;99.90
68354;DHT22;55274;43.060;25.618;2023-03-01T17:43:30;7.30;99.90
68354;DHT22;55274;43.060;25.618;2023-03-01T17:45:56;7.30;99.90
68354;DHT22;55274;43.060;25.618;2023-03-01T17:48:22;7.30;99.90
68354;DHT22;55274;43.060;25.618;2023-03-01T17:50:48;7.30;99.90
68354;DHT22;55274;43.060;25.618;2023-03-01T17:53:14;7.30;99.90
68354;DHT22;55274;43.060;25.618;2023-03-01T17:55:42;7.30;99.90
68354;DHT22;55274;43.060;25.618;2023-03-01T17:58:09;7.30;99.90
68354;DHT22;55274;43.060;25.618;2023-03-01T18:00:36;7.30;99.90
68354;DHT22;55274;43.060;25.618;2023-03-01T18:03:03;7.20;99.90
68354;DHT22;55274;43.060;25.618;2023-03-01T18:05:35;7.20;99.90
68354;DHT22;55274;43.060;25.618;2023-03-01T18:08:04;7.20;99.90
68354;DHT22;55274;43.060;25.618;2023-03-01T18:10:31;7.20;99.90
68354;DHT22;55274;43.060;25.618;2023-03-01T18:12:57;7.10;99.90